createdAt,value
2022-08-03T00:01:31.818Z,2.33
2022-08-03T00:03:58.997Z,2.70
2022-08-03T00:06:26.048Z,2.47
2022-08-03T00:08:53.044Z,2.40
2022-08-03T00:11:20.121Z,2.45
2022-08-03T00:13:47.636Z,2.88
2022-08-03T00:16:14.870Z,2.58
2022-08-03T00:18:42.135Z,2.58
2022-08-03T00:21:09.311Z,2.50
2022-08-03T00:23:52.233Z,2.38
2022-08-03T00:26:20.959Z,2.65
2022-08-03T00:28:48.430Z,2.90
2022-08-03T00:31:15.464Z,2.58
2022-08-03T00:33:58.721Z,2.30
2022-08-03T00:36:29.774Z,2.42
2022-08-03T00:38:57.017Z,2.35
2022-08-03T00:41:24.410Z,2.17
2022-08-03T00:43:51.457Z,3.25
2022-08-03T00:46:21.758Z,2.80
2022-08-03T00:48:53.336Z,2.72
2022-08-03T00:51:24.214Z,2.15
2022-08-03T00:53:51.671Z,2.55
2022-08-03T00:56:19.066Z,2.25
2022-08-03T00:58:47.248Z,2.90
2022-08-03T01:01:15.403Z,2.78
2022-08-03T01:03:42.842Z,3.10
2022-08-03T01:07:01.573Z,2.63
2022-08-03T01:09:38.664Z,3.38
2022-08-03T01:12:22.723Z,2.90
2022-08-03T01:15:15.699Z,2.70
2022-08-03T01:17:56.784Z,2.97
2022-08-03T01:20:27.513Z,2.60
2022-08-03T01:23:10.680Z,2.80
2022-08-03T01:26:06.165Z,3.22
2022-08-03T01:28:51.795Z,3.13
2022-08-03T01:31:26.362Z,2.55
2022-08-03T01:34:01.412Z,2.88
2022-08-03T01:36:35.434Z,2.85
2022-08-03T01:39:09.603Z,2.90
2022-08-03T01:41:42.548Z,3.08
2022-08-03T01:44:27.446Z,2.70
2022-08-03T01:47:02.570Z,3.42
2022-08-03T01:49:33.881Z,3.00
2022-08-03T01:52:05.406Z,3.22
2022-08-03T01:54:37.873Z,2.78
2022-08-03T01:57:06.141Z,2.70
2022-08-03T01:59:35.531Z,2.92
2022-08-03T02:02:15.952Z,2.95
2022-08-03T02:04:53.849Z,3.50
2022-08-03T02:07:21.279Z,2.50
2022-08-03T02:09:51.830Z,3.00
2022-08-03T02:12:19.636Z,3.63
2022-08-03T02:14:48.928Z,3.00
2022-08-03T02:17:16.729Z,3.20
2022-08-03T02:19:44.777Z,3.33
2022-08-03T02:22:14.174Z,3.05
2022-08-03T02:24:41.541Z,2.88
2022-08-03T02:27:24.451Z,3.22
2022-08-03T02:30:02.843Z,3.20
2022-08-03T02:32:41.399Z,3.13
2022-08-03T02:35:13.371Z,3.17
2022-08-03T02:37:50.007Z,3.33
2022-08-03T02:40:19.489Z,2.80
2022-08-03T02:42:49.529Z,3.40
2022-08-03T02:45:18.460Z,3.83
2022-08-03T02:47:54.430Z,3.55
2022-08-03T02:50:23.792Z,3.38
2022-08-03T02:52:52.465Z,3.22
2022-08-03T02:55:22.671Z,3.90
2022-08-03T02:57:51.645Z,3.65
2022-08-03T03:00:19.494Z,3.53
2022-08-03T03:03:00.552Z,3.47
2022-08-03T03:05:52.107Z,3.42
2022-08-03T03:08:20.908Z,3.50
2022-08-03T03:10:56.593Z,3.42
2022-08-03T03:13:24.366Z,3.83
2022-08-03T03:15:52.807Z,3.75
2022-08-03T03:18:22.814Z,3.47
2022-08-03T03:20:52.502Z,3.67
2022-08-03T03:23:22.347Z,4.03
2022-08-03T03:25:50.821Z,3.97
2022-08-03T03:28:18.160Z,3.42
2022-08-03T03:30:52.884Z,3.88
2022-08-03T03:33:21.777Z,3.70
2022-08-03T03:35:49.710Z,3.15
2022-08-03T03:38:16.753Z,3.42
2022-08-03T03:40:44.416Z,3.40
2022-08-03T03:43:13.136Z,3.50
2022-08-03T03:45:44.297Z,3.47
2022-08-03T03:48:11.585Z,3.33
2022-08-03T03:50:41.833Z,3.30
2022-08-03T03:53:12.880Z,4.18
2022-08-03T03:55:59.131Z,3.47
2022-08-03T03:58:28.407Z,5.55
2022-08-03T04:00:55.707Z,6.22
2022-08-03T04:03:22.802Z,7.40
2022-08-03T04:06:08.514Z,4.32
2022-08-03T04:08:54.153Z,8.35
2022-08-03T04:11:50.065Z,5.30
2022-08-03T04:14:26.924Z,3.90
2022-08-03T04:17:03.520Z,4.55
2022-08-03T04:19:38.756Z,3.95
2022-08-03T04:22:18.801Z,4.00
2022-08-03T04:24:52.493Z,5.50
2022-08-03T04:27:25.871Z,5.65
2022-08-03T04:29:56.838Z,4.32
2022-08-03T04:32:26.412Z,4.72
2022-08-03T04:34:53.836Z,3.80
2022-08-03T04:37:43.600Z,3.42
2022-08-03T04:40:16.325Z,6.05
2022-08-03T04:42:50.097Z,6.38
2022-08-03T04:45:18.973Z,4.45
2022-08-03T04:47:46.222Z,13.25
2022-08-03T04:50:21.688Z,3.80
2022-08-03T04:52:49.393Z,3.90
2022-08-03T04:55:34.635Z,4.15
2022-08-03T04:58:03.300Z,3.30
2022-08-03T05:00:30.731Z,4.18
2022-08-03T05:02:57.811Z,4.20
2022-08-03T05:05:24.936Z,3.58
2022-08-03T05:07:51.981Z,3.65
2022-08-03T05:10:20.402Z,3.63
2022-08-03T05:12:48.758Z,3.60
2022-08-03T05:15:16.257Z,3.58
2022-08-03T05:17:43.719Z,3.95
2022-08-03T05:20:11.615Z,4.00
2022-08-03T05:22:38.641Z,3.25
2022-08-03T05:25:05.994Z,3.80
2022-08-03T05:27:33.006Z,3.75
2022-08-03T05:30:31.022Z,3.30
2022-08-03T05:32:47.104Z,5.65
2022-08-03T05:35:57.920Z,3.35
2022-08-03T05:38:03.750Z,3.10
2022-08-03T05:40:31.297Z,3.50
2022-08-03T05:42:58.845Z,3.20
2022-08-03T05:45:28.367Z,3.60
2022-08-03T05:47:55.970Z,3.33
2022-08-03T05:50:23.209Z,3.20
2022-08-03T05:52:50.501Z,2.83
2022-08-03T05:55:17.923Z,2.85
2022-08-03T05:57:47.842Z,3.08
2022-08-03T06:00:16.647Z,3.10
2022-08-03T06:02:43.780Z,3.03
2022-08-03T06:05:11.092Z,4.25
2022-08-03T06:07:38.257Z,2.85
2022-08-03T06:10:34.958Z,5.25
2022-08-03T06:12:53.038Z,3.70
2022-08-03T06:15:20.821Z,3.20
2022-08-03T06:17:52.138Z,3.10
2022-08-03T06:20:21.076Z,3.35
2022-08-03T06:22:50.752Z,3.15
2022-08-03T06:25:21.139Z,2.80
2022-08-03T06:27:48.511Z,2.75
2022-08-03T06:30:20.999Z,3.00
2022-08-03T06:32:51.939Z,3.38
2022-08-03T06:35:19.881Z,3.38
2022-08-03T06:37:49.020Z,3.10
2022-08-03T06:40:29.310Z,3.03
2022-08-03T06:43:00.357Z,3.10
2022-08-03T06:45:32.131Z,3.10
2022-08-03T06:48:03.130Z,3.00
2022-08-03T06:50:30.445Z,2.40
2022-08-03T06:52:57.506Z,2.55
2022-08-03T06:55:24.897Z,2.60
2022-08-03T06:57:52.287Z,2.08
2022-08-03T07:00:19.993Z,2.78
2022-08-03T07:02:47.526Z,2.17
2022-08-03T07:05:15.051Z,2.30
2022-08-03T07:07:42.302Z,2.10
2022-08-03T07:10:11.650Z,1.95
2022-08-03T07:12:55.580Z,1.77
2022-08-03T07:15:55.083Z,1.65
2022-08-03T07:18:10.732Z,1.85
2022-08-03T07:20:37.756Z,1.70
2022-08-03T07:23:04.795Z,1.83
2022-08-03T07:25:31.784Z,1.77
2022-08-03T07:27:58.926Z,1.50
2022-08-03T07:30:25.911Z,1.48
2022-08-03T07:32:52.924Z,1.70
2022-08-03T07:35:25.007Z,2.10
2022-08-03T07:37:54.428Z,2.00
2022-08-03T07:40:22.230Z,2.13
2022-08-03T07:42:52.123Z,1.88
2022-08-03T07:45:23.460Z,1.88
2022-08-03T07:47:53.558Z,1.63
2022-08-03T07:50:22.020Z,5.22
2022-08-03T07:52:50.100Z,1.60
2022-08-03T07:55:18.974Z,2.00
2022-08-03T07:57:46.011Z,1.80
2022-08-03T08:00:18.918Z,1.67
2022-08-03T08:02:46.506Z,1.60
2022-08-03T08:05:13.860Z,1.80
2022-08-03T08:07:40.996Z,2.10
2022-08-03T08:10:10.272Z,1.73
2022-08-03T08:12:38.963Z,1.67
2022-08-03T08:15:07.412Z,1.80
2022-08-03T08:17:53.996Z,1.50
2022-08-03T08:20:30.563Z,1.50
2022-08-03T08:23:01.978Z,1.50
2022-08-03T08:25:31.329Z,1.63
2022-08-03T08:28:29.332Z,1.27
2022-08-03T08:30:50.299Z,1.20
2022-08-03T08:33:23.380Z,1.50
2022-08-03T08:35:53.159Z,1.52
2022-08-03T08:38:20.445Z,1.42
2022-08-03T08:40:49.208Z,1.67
2022-08-03T08:43:16.339Z,1.02
2022-08-03T08:45:43.810Z,1.70
2022-08-03T08:48:13.256Z,1.52
2022-08-03T08:50:40.347Z,1.30
2022-08-03T08:53:09.710Z,1.00
2022-08-03T08:55:58.017Z,0.90
2022-08-03T08:58:29.242Z,1.00
2022-08-03T09:00:56.568Z,1.40
2022-08-03T09:03:30.211Z,0.90
2022-08-03T09:05:59.817Z,1.00
2022-08-03T09:08:26.952Z,0.70
2022-08-03T09:11:07.733Z,0.82
2022-08-03T09:13:35.999Z,0.80
2022-08-03T09:16:19.951Z,1.45
2022-08-03T09:18:53.316Z,1.17
2022-08-03T09:21:32.249Z,1.00
2022-08-03T09:24:03.325Z,0.90
2022-08-03T09:26:32.332Z,0.90
2022-08-03T09:29:13.188Z,0.90
2022-08-03T09:31:44.884Z,0.98
2022-08-03T09:34:15.083Z,0.90
2022-08-03T09:36:43.942Z,1.23
2022-08-03T09:39:15.830Z,1.00
2022-08-03T09:41:49.149Z,0.90
2022-08-03T09:44:25.840Z,1.67
2022-08-03T09:46:56.401Z,0.80
2022-08-03T09:49:24.564Z,0.80
2022-08-03T09:52:33.568Z,1.17
2022-08-03T09:54:39.020Z,0.90
2022-08-03T09:57:06.115Z,1.00
2022-08-03T09:59:34.104Z,1.00
2022-08-03T10:02:02.516Z,0.85
2022-08-03T10:04:29.577Z,0.95
2022-08-03T10:07:10.950Z,0.77
2022-08-03T10:09:38.434Z,1.20
2022-08-03T10:12:12.682Z,0.80
2022-08-03T10:14:42.424Z,1.65
2022-08-03T10:17:13.056Z,0.90
2022-08-03T10:19:41.363Z,0.82
2022-08-03T10:22:16.414Z,0.95
2022-08-03T10:25:07.106Z,1.75
2022-08-03T10:27:42.701Z,0.80
2022-08-03T10:30:11.508Z,4.45
2022-08-03T10:32:49.497Z,1.30
2022-08-03T10:35:20.245Z,0.70
2022-08-03T10:37:58.775Z,0.90
2022-08-03T10:43:28.736Z,0.73
2022-08-03T10:45:56.859Z,0.80
2022-08-03T10:48:25.166Z,0.80
2022-08-03T10:50:52.571Z,1.00
2022-08-03T10:53:36.213Z,0.70
2022-08-03T10:56:23.435Z,0.60
2022-08-03T10:59:09.796Z,0.80
2022-08-03T11:01:59.931Z,0.85
2022-08-03T11:04:30.017Z,0.90
2022-08-03T11:07:23.373Z,0.70
2022-08-03T11:09:54.582Z,0.50
2022-08-03T11:12:30.695Z,0.65
2022-08-03T11:15:07.692Z,0.60
2022-08-03T11:17:46.903Z,0.38
2022-08-03T11:20:54.783Z,0.77
2022-08-03T11:24:04.810Z,0.57
2022-08-03T11:26:29.251Z,0.98
2022-08-03T11:29:29.407Z,0.90
2022-08-03T11:31:56.710Z,0.80
2022-08-03T11:34:24.728Z,0.50
2022-08-03T11:37:27.259Z,0.60
2022-08-03T11:39:58.472Z,0.60
2022-08-03T11:42:26.416Z,0.57
2022-08-03T11:45:00.959Z,0.57
2022-08-03T11:47:30.109Z,0.55
2022-08-03T11:50:00.752Z,0.50
2022-08-03T11:52:34.314Z,0.60
2022-08-03T11:55:01.987Z,1.23
2022-08-03T11:59:19.156Z,0.70
2022-08-03T12:00:31.853Z,0.77
2022-08-03T12:03:04.681Z,0.50
2022-08-03T12:05:51.715Z,1.00
2022-08-03T12:08:28.739Z,0.60
2022-08-03T12:10:57.189Z,0.30
2022-08-03T12:14:45.265Z,0.50
2022-08-03T12:16:21.453Z,0.40
2022-08-03T12:19:15.973Z,0.70
2022-08-03T12:21:57.266Z,0.60
2022-08-03T12:24:24.702Z,1.15
2022-08-03T12:26:58.503Z,0.65
2022-08-03T12:29:27.291Z,0.60
2022-08-03T12:31:55.993Z,0.70
2022-08-03T12:34:23.456Z,0.90
2022-08-03T12:36:56.798Z,0.47
2022-08-03T12:39:26.551Z,0.60
2022-08-03T12:41:55.186Z,0.60
2022-08-03T12:44:36.705Z,0.80
2022-08-03T12:47:06.778Z,0.50
2022-08-03T12:49:51.269Z,0.43
2022-08-03T12:52:19.980Z,0.60
2022-08-03T12:55:01.142Z,0.70
2022-08-03T12:57:42.320Z,1.15
2022-08-03T13:00:28.859Z,0.57
2022-08-03T13:03:39.495Z,0.80
2022-08-03T13:05:51.250Z,0.60
2022-08-03T13:08:23.741Z,0.50
2022-08-03T13:10:51.739Z,0.50
2022-08-03T13:13:20.921Z,0.50
2022-08-03T13:15:48.393Z,0.47
2022-08-03T13:18:17.554Z,0.60
2022-08-03T13:20:44.881Z,0.47
2022-08-03T13:23:15.371Z,0.80
2022-08-03T13:25:55.150Z,0.50
2022-08-03T13:28:23.211Z,0.60
2022-08-03T13:30:50.351Z,0.82
2022-08-03T13:33:17.628Z,0.52
2022-08-03T13:35:44.702Z,0.70
2022-08-03T13:38:11.831Z,0.50
2022-08-03T13:40:41.833Z,0.60
2022-08-03T13:43:09.136Z,0.55
2022-08-03T13:45:36.243Z,0.75
2022-08-03T13:48:05.629Z,0.60
2022-08-03T13:50:33.238Z,0.60
2022-08-03T13:53:00.205Z,0.88
2022-08-03T13:55:27.286Z,0.73
2022-08-03T13:58:19.094Z,0.40
2022-08-03T14:00:41.436Z,0.60
2022-08-03T14:03:14.295Z,0.40
2022-08-03T14:05:43.315Z,0.70
2022-08-03T14:08:10.610Z,0.65
2022-08-03T14:10:39.894Z,0.70
2022-08-03T14:13:07.579Z,0.88
2022-08-03T14:15:38.284Z,0.68
2022-08-03T14:18:07.380Z,0.40
2022-08-03T14:20:47.701Z,0.40
2022-08-03T14:23:17.832Z,0.65
2022-08-03T14:25:52.039Z,0.50
2022-08-03T14:28:22.766Z,0.65
2022-08-03T14:30:51.064Z,0.40
2022-08-03T14:33:18.069Z,0.40
2022-08-03T14:35:45.056Z,0.70
2022-08-03T14:38:12.069Z,0.60
2022-08-03T14:40:39.139Z,0.80
2022-08-03T14:43:06.094Z,0.50
2022-08-03T14:45:34.407Z,0.60
2022-08-03T14:50:34.227Z,0.40
2022-08-03T14:50:51.597Z,1.40
2022-08-03T14:53:19.862Z,0.68
2022-08-03T14:55:51.591Z,0.60
2022-08-03T14:58:21.116Z,0.50
2022-08-03T15:00:49.892Z,0.70
2022-08-03T15:03:17.631Z,0.80
2022-08-03T15:05:44.956Z,0.65
2022-08-03T15:08:11.958Z,0.60
2022-08-03T15:10:40.309Z,0.40
2022-08-03T15:13:12.403Z,0.55
2022-08-03T15:15:39.471Z,0.55
2022-08-03T15:18:06.504Z,0.88
2022-08-03T15:20:43.844Z,0.80
2022-08-03T15:23:12.127Z,0.80
2022-08-03T15:26:31.914Z,1.95
2022-08-03T15:28:26.093Z,0.65
2022-08-03T15:30:53.421Z,0.75
2022-08-03T15:33:20.736Z,0.40
2022-08-03T15:35:48.066Z,0.70
2022-08-03T15:38:15.741Z,0.63
2022-08-03T15:40:42.854Z,0.70
2022-08-03T15:43:09.962Z,0.45
2022-08-03T15:45:37.402Z,0.73
2022-08-03T15:48:07.527Z,0.95
2022-08-03T15:50:35.106Z,0.70
2022-08-03T15:53:02.082Z,0.70
2022-08-03T15:55:29.183Z,0.60
2022-08-03T15:59:04.663Z,0.70
2022-08-03T16:00:44.382Z,0.75
2022-08-03T16:03:11.423Z,0.55
2022-08-03T16:05:38.803Z,0.43
2022-08-03T16:08:10.295Z,0.80
2022-08-03T16:10:40.837Z,0.40
2022-08-03T16:13:08.425Z,0.50
2022-08-03T16:15:38.664Z,0.52
2022-08-03T16:18:07.706Z,0.30
2022-08-03T16:20:35.375Z,0.55
2022-08-03T16:23:09.147Z,0.60
2022-08-03T16:25:42.295Z,0.88
2022-08-03T16:28:14.355Z,0.63
2022-08-03T16:30:43.413Z,0.57
2022-08-03T16:33:16.594Z,0.60
2022-08-03T16:35:45.974Z,0.57
2022-08-03T16:38:18.358Z,0.68
2022-08-03T16:40:47.539Z,0.50
2022-08-03T16:43:18.694Z,0.60
2022-08-03T16:45:46.679Z,0.50
2022-08-03T16:48:16.009Z,0.52
2022-08-03T16:50:45.092Z,0.43
2022-08-03T16:53:16.566Z,0.85
2022-08-03T16:55:51.989Z,0.70
2022-08-03T16:58:41.245Z,0.75
2022-08-03T17:01:21.559Z,0.60
2022-08-03T17:04:02.162Z,0.82
2022-08-03T17:06:36.379Z,0.70
2022-08-03T17:09:08.993Z,0.73
2022-08-03T17:11:44.065Z,0.60
2022-08-03T17:14:21.898Z,0.60
2022-08-03T17:16:52.713Z,0.70
2022-08-03T17:19:23.191Z,0.55
2022-08-03T17:21:58.118Z,0.80
2022-08-03T17:24:31.221Z,0.60
2022-08-03T17:27:02.749Z,0.60
2022-08-03T17:29:33.066Z,0.55
2022-08-03T17:32:09.277Z,0.50
2022-08-03T17:34:42.811Z,0.60
2022-08-03T17:37:50.004Z,0.50
2022-08-03T17:40:00.749Z,0.60
2022-08-03T17:42:39.206Z,0.40
2022-08-03T17:45:07.356Z,0.60
2022-08-03T17:47:42.279Z,0.60
2022-08-03T17:50:24.342Z,0.88
2022-08-03T17:53:15.500Z,0.60
2022-08-03T17:56:40.422Z,2.90
2022-08-03T17:59:50.803Z,0.63
2022-08-03T18:02:37.368Z,0.82
2022-08-03T18:05:16.857Z,0.55
2022-08-03T18:08:02.467Z,0.73
2022-08-03T18:10:49.965Z,0.80
2022-08-03T18:13:35.165Z,0.60
2022-08-03T18:16:17.972Z,0.50
2022-08-03T18:19:09.722Z,0.50
2022-08-03T18:22:03.382Z,0.70
2022-08-03T18:24:39.475Z,0.55
2022-08-03T18:27:24.969Z,0.65
2022-08-03T18:30:27.726Z,0.60
2022-08-03T18:34:17.380Z,0.70
2022-08-03T18:36:41.184Z,0.60
2022-08-03T18:39:19.844Z,0.90
2022-08-03T18:42:03.597Z,0.77
2022-08-03T18:44:58.815Z,1.50
2022-08-03T18:48:02.593Z,0.90
2022-08-03T18:50:48.216Z,3.20
2022-08-03T18:53:19.894Z,1.10
2022-08-03T18:56:10.798Z,1.88
2022-08-03T18:58:56.233Z,1.17
2022-08-03T19:02:00.032Z,7.15
2022-08-03T19:04:41.249Z,1.38
2022-08-03T19:07:18.236Z,10.30
2022-08-03T19:09:55.770Z,0.73
2022-08-03T19:12:47.015Z,1.17
2022-08-03T19:15:15.627Z,0.85
2022-08-03T19:17:53.218Z,1.40
2022-08-03T19:20:38.649Z,1.70
2022-08-03T19:23:06.708Z,1.00
2022-08-03T19:25:40.417Z,1.17
2022-08-03T19:28:09.378Z,0.80
2022-08-03T19:30:39.897Z,1.10
2022-08-03T19:33:15.437Z,1.63
2022-08-03T19:35:55.655Z,1.00
2022-08-03T19:38:28.780Z,0.60
2022-08-03T19:41:02.987Z,0.80
2022-08-03T19:43:52.809Z,0.80
2022-08-03T19:46:30.369Z,0.70
2022-08-03T19:50:15.847Z,0.88
2022-08-03T19:53:15.361Z,1.38
2022-08-03T19:56:20.578Z,0.82
2022-08-03T19:58:54.638Z,1.58
2022-08-03T20:01:50.207Z,1.10
2022-08-03T20:04:20.718Z,1.10
2022-08-03T20:06:50.637Z,0.82
2022-08-03T20:09:21.949Z,1.30
2022-08-03T20:11:51.731Z,1.40
2022-08-03T20:14:26.473Z,1.52
2022-08-03T20:17:56.040Z,1.23
2022-08-03T20:20:25.415Z,1.30
2022-08-03T20:22:58.970Z,1.08
2022-08-03T20:25:59.106Z,1.15
2022-08-03T20:28:35.315Z,1.10
2022-08-03T20:31:32.058Z,1.08
2022-08-03T20:34:04.272Z,1.10
2022-08-03T20:36:31.245Z,1.08
2022-08-03T20:38:59.008Z,1.30
2022-08-03T20:41:26.779Z,1.10
2022-08-03T20:43:54.138Z,1.48
2022-08-03T20:46:31.074Z,0.90
2022-08-03T20:49:05.385Z,1.10
2022-08-03T20:51:50.263Z,1.00
2022-08-03T20:54:29.451Z,1.05
2022-08-03T20:57:04.262Z,1.33
2022-08-03T20:59:50.154Z,1.05
2022-08-03T21:02:30.001Z,1.02
2022-08-03T21:08:06.495Z,1.20
2022-08-03T21:10:38.087Z,0.93
2022-08-03T21:13:07.969Z,1.23
2022-08-03T21:13:26.365Z,0.82
2022-08-03T21:16:07.079Z,1.25
2022-08-03T21:18:46.283Z,1.20
2022-08-03T21:21:16.402Z,1.33
2022-08-03T21:23:48.734Z,1.30
2022-08-03T21:26:18.735Z,1.85
2022-08-03T21:28:50.358Z,1.05
2022-08-03T21:31:25.276Z,1.20
2022-08-03T21:33:58.371Z,3.40
2022-08-03T21:36:28.060Z,1.30
2022-08-03T21:38:57.547Z,1.13
2022-08-03T21:41:30.547Z,1.63
2022-08-03T21:43:58.272Z,1.35
2022-08-03T21:46:27.511Z,1.40
2022-08-03T21:50:05.267Z,1.40
2022-08-03T21:51:49.977Z,1.00
2022-08-03T21:54:20.264Z,1.25
2022-08-03T21:56:51.200Z,1.30
2022-08-03T21:59:20.413Z,1.73
2022-08-03T22:01:49.564Z,1.30
2022-08-03T22:04:50.604Z,1.25
2022-08-03T22:07:10.352Z,1.10
2022-08-03T22:09:38.065Z,1.23
2022-08-03T22:12:05.719Z,1.27
2022-08-03T22:14:33.703Z,1.40
2022-08-03T22:17:00.964Z,1.30
2022-08-03T22:19:33.504Z,1.48
2022-08-03T22:22:04.690Z,1.58
2022-08-03T22:24:36.720Z,1.30
2022-08-03T22:27:23.304Z,1.20
2022-08-03T22:29:51.868Z,1.50
2022-08-03T22:32:19.802Z,1.70
2022-08-03T22:34:48.941Z,2.03
2022-08-03T22:37:18.596Z,1.65
2022-08-03T22:39:46.190Z,1.73
2022-08-03T22:42:13.849Z,1.70
2022-08-03T22:44:41.012Z,1.90
2022-08-03T22:47:09.909Z,1.35
2022-08-03T22:49:38.017Z,1.88
2022-08-03T22:52:06.040Z,1.70
2022-08-03T22:54:33.508Z,1.70
2022-08-03T22:57:00.957Z,1.60
2022-08-03T22:59:41.437Z,1.35
2022-08-03T23:02:21.478Z,1.50
2022-08-03T23:04:56.584Z,1.50
2022-08-03T23:07:51.302Z,1.63
2022-08-03T23:10:19.251Z,1.67
2022-08-03T23:12:50.169Z,1.58
2022-08-03T23:15:18.787Z,1.42
2022-08-03T23:17:57.390Z,1.52
2022-08-03T23:20:27.070Z,1.92
2022-08-03T23:22:57.750Z,1.48
2022-08-03T23:25:25.358Z,1.20
2022-08-03T23:28:05.432Z,1.50
2022-08-03T23:30:37.341Z,1.58
2022-08-03T23:33:06.387Z,1.70
2022-08-03T23:36:22.679Z,1.90
2022-08-03T23:38:40.432Z,1.58
2022-08-03T23:41:09.389Z,1.67
2022-08-03T23:43:51.125Z,1.58
2022-08-03T23:46:21.343Z,2.00
2022-08-03T23:48:48.336Z,1.92
2022-08-03T23:51:46.521Z,1.60
2022-08-03T23:54:40.292Z,1.40
2022-08-03T23:57:29.446Z,1.85
